sensor_id;sensor_type;location;lat;lon;timestamp;pressure;altitude;pressure_sealevel;temperature;humidity
76378;BME280;65200;49.500;8.654;2023-01-05T00:02:05;100868.72;;;10.30;85.86
76378;BME280;65200;49.500;8.654;2023-01-05T00:04:31;100871.81;;;10.19;87.75
76378;BME280;65200;49.500;8.654;2023-01-05T00:06:58;100869.97;;;10.19;87.30
76378;BME280;65200;49.500;8.654;2023-01-05T00:09:24;100871.13;;;10.17;87.57
76378;BME280;65200;49.500;8.654;2023-01-05T00:11:50;100852.75;;;10.14;86.84
76378;BME280;65200;49.500;8.654;2023-01-05T00:14:34;100849.59;;;10.10;87.19
76378;BME280;65200;49.500;8.654;2023-01-05T00:17:21;100844.72;;;10.06;86.88
76378;BME280;65200;49.500;8.654;2023-01-05T00:20:13;100839.72;;;10.03;87.76
76378;BME280;65200;49.500;8.654;2023-01-05T00:22:57;100830.53;;;9.97;89.21
76378;BME280;65200;49.500;8.654;2023-01-05T00:25:25;100834.72;;;10.00;88.76
76378;BME280;65200;49.500;8.654;2023-01-05T00:27:52;100830.88;;;9.94;89.11
76378;BME280;65200;49.500;8.654;2023-01-05T00:30:21;100835.41;;;9.94;88.97
76378;BME280;65200;49.500;8.654;2023-01-05T00:32:50;100827.72;;;9.91;89.35
76378;BME280;65200;49.500;8.654;2023-01-05T00:35:17;100828.25;;;9.86;89.32
76378;BME280;65200;49.500;8.654;2023-01-05T00:37:44;100828.44;;;9.85;89.10
76378;BME280;65200;49.500;8.654;2023-01-05T00:40:12;100820.94;;;9.80;89.40
76378;BME280;65200;49.500;8.654;2023-01-05T00:42:39;100827.75;;;9.83;87.81
76378;BME280;65200;49.500;8.654;2023-01-05T00:45:07;100825.09;;;9.83;89.64
76378;BME280;65200;49.500;8.654;2023-01-05T00:47:33;100826.94;;;9.82;88.63
76378;BME280;65200;49.500;8.654;2023-01-05T00:50:01;100818.25;;;9.80;89.21
76378;BME280;65200;49.500;8.654;2023-01-05T00:52:28;100815.41;;;9.82;89.31
76378;BME280;65200;49.500;8.654;2023-01-05T00:54:54;100826.59;;;9.85;88.62
76378;BME280;65200;49.500;8.654;2023-01-05T00:57:21;100831.28;;;9.83;88.70
76378;BME280;65200;49.500;8.654;2023-01-05T00:59:47;100829.09;;;9.87;87.89
76378;BME280;65200;49.500;8.654;2023-01-05T01:02:14;100846.81;;;9.88;87.99
76378;BME280;65200;49.500;8.654;2023-01-05T01:04:41;100843.47;;;9.86;89.67
76378;BME280;65200;49.500;8.654;2023-01-05T01:07:08;100826.41;;;9.87;89.05
76378;BME280;65200;49.500;8.654;2023-01-05T01:09:35;100828.06;;;9.88;88.45
76378;BME280;65200;49.500;8.654;2023-01-05T01:12:01;100828.75;;;9.90;88.38
76378;BME280;65200;49.500;8.654;2023-01-05T01:14:28;100815.53;;;9.88;89.80
76378;BME280;65200;49.500;8.654;2023-01-05T01:16:55;100814.50;;;9.89;88.71
76378;BME280;65200;49.500;8.654;2023-01-05T01:19:23;100812.84;;;9.88;88.92
76378;BME280;65200;49.500;8.654;2023-01-05T01:21:50;100823.69;;;9.95;88.45
76378;BME280;65200;49.500;8.654;2023-01-05T01:24:19;100814.34;;;9.91;88.17
76378;BME280;65200;49.500;8.654;2023-01-05T01:26:46;100814.81;;;9.94;89.56
76378;BME280;65200;49.500;8.654;2023-01-05T01:29:13;100819.34;;;9.94;88.69
76378;BME280;65200;49.500;8.654;2023-01-05T01:31:41;100814.81;;;9.94;89.37
76378;BME280;65200;49.500;8.654;2023-01-05T01:34:08;100823.34;;;9.98;88.99
76378;BME280;65200;49.500;8.654;2023-01-05T01:36:34;100827.84;;;9.97;89.26
76378;BME280;65200;49.500;8.654;2023-01-05T01:39:00;100826.50;;;10.01;89.71
76378;BME280;65200;49.500;8.654;2023-01-05T01:41:28;100832.34;;;10.05;89.02
76378;BME280;65200;49.500;8.654;2023-01-05T01:43:55;100825.47;;;10.10;88.40
76378;BME280;65200;49.500;8.654;2023-01-05T01:46:23;100820.13;;;10.10;88.47
76378;BME280;65200;49.500;8.654;2023-01-05T01:48:53;100826.81;;;10.14;89.41
76378;BME280;65200;49.500;8.654;2023-01-05T01:51:23;100811.09;;;10.11;88.14
76378;BME280;65200;49.500;8.654;2023-01-05T01:53:56;100817.09;;;10.13;89.32
76378;BME280;65200;49.500;8.654;2023-01-05T01:56:25;100810.75;;;10.14;88.17
76378;BME280;65200;49.500;8.654;2023-01-05T01:58:56;100822.44;;;10.21;89.02
76378;BME280;65200;49.500;8.654;2023-01-05T02:01:22;100826.28;;;10.19;89.16
76378;BME280;65200;49.500;8.654;2023-01-05T02:03:49;100820.75;;;10.20;87.82
76378;BME280;65200;49.500;8.654;2023-01-05T02:06:16;100822.56;;;10.20;88.48
76378;BME280;65200;49.500;8.654;2023-01-05T02:08:43;100811.72;;;10.21;88.64
76378;BME280;65200;49.500;8.654;2023-01-05T02:11:23;100817.66;;;10.31;88.87
76378;BME280;65200;49.500;8.654;2023-01-05T02:14:05;100814.59;;;10.34;87.43
76378;BME280;65200;49.500;8.654;2023-01-05T02:16:45;100805.09;;;10.32;87.89
76378;BME280;65200;49.500;8.654;2023-01-05T02:19:47;100807.78;;;10.32;88.78
76378;BME280;65200;49.500;8.654;2023-01-05T02:22:40;100796.88;;;10.33;87.37
76378;BME280;65200;49.500;8.654;2023-01-05T02:25:32;100805.94;;;10.32;88.32
76378;BME280;65200;49.500;8.654;2023-01-05T02:28:13;100797.41;;;10.29;88.60
76378;BME280;65200;49.500;8.654;2023-01-05T02:31:00;100800.75;;;10.31;89.21
76378;BME280;65200;49.500;8.654;2023-01-05T02:33:42;100789.69;;;10.34;88.41
76378;BME280;65200;49.500;8.654;2023-01-05T02:36:23;100795.84;;;10.34;89.31
76378;BME280;65200;49.500;8.654;2023-01-05T02:38:57;100786.53;;;10.30;88.75
76378;BME280;65200;49.500;8.654;2023-01-05T02:41:31;100792.53;;;10.32;88.33
76378;BME280;65200;49.500;8.654;2023-01-05T02:43:59;100788.66;;;10.35;88.99
76378;BME280;65200;49.500;8.654;2023-01-05T02:46:27;100781.66;;;10.34;88.58
76378;BME280;65200;49.500;8.654;2023-01-05T02:48:55;100776.53;;;10.24;89.78
76378;BME280;65200;49.500;8.654;2023-01-05T02:51:26;100776.84;;;10.29;89.96
76378;BME280;65200;49.500;8.654;2023-01-05T02:53:58;100770.63;;;10.29;89.31
76378;BME280;65200;49.500;8.654;2023-01-05T02:56:29;100778.00;;;10.27;89.88
76378;BME280;65200;49.500;8.654;2023-01-05T02:59:01;100781.72;;;10.26;90.42
76378;BME280;65200;49.500;8.654;2023-01-05T03:01:34;100769.31;;;10.25;91.01
76378;BME280;65200;49.500;8.654;2023-01-05T03:04:05;100772.81;;;10.25;90.27
76378;BME280;65200;49.500;8.654;2023-01-05T03:06:37;100769.50;;;10.23;89.56
76378;BME280;65200;49.500;8.654;2023-01-05T03:09:13;100776.00;;;10.29;90.21
76378;BME280;65200;49.500;8.654;2023-01-05T03:11:44;100785.69;;;10.30;89.86
76378;BME280;65200;49.500;8.654;2023-01-05T03:14:33;100784.22;;;10.27;90.19
76378;BME280;65200;49.500;8.654;2023-01-05T03:17:04;100791.88;;;10.30;89.29
76378;BME280;65200;49.500;8.654;2023-01-05T03:19:34;100802.59;;;10.30;89.98
76378;BME280;65200;49.500;8.654;2023-01-05T03:22:03;100804.97;;;10.25;89.29
76378;BME280;65200;49.500;8.654;2023-01-05T03:24:48;100822.88;;;10.25;89.93
76378;BME280;65200;49.500;8.654;2023-01-05T03:27:33;100818.38;;;10.25;89.75
76378;BME280;65200;49.500;8.654;2023-01-05T03:30:18;100816.72;;;10.24;91.14
76378;BME280;65200;49.500;8.654;2023-01-05T03:33:09;100817.06;;;10.21;91.28
76378;BME280;65200;49.500;8.654;2023-01-05T03:35:57;100834.50;;;10.17;91.22
76378;BME280;65200;49.500;8.654;2023-01-05T03:38:28;100848.72;;;10.18;91.86
76378;BME280;65200;49.500;8.654;2023-01-05T03:40:58;100849.53;;;10.18;90.60
76378;BME280;65200;49.500;8.654;2023-01-05T03:43:26;100859.63;;;10.16;90.75
76378;BME280;65200;49.500;8.654;2023-01-05T03:45:55;100860.59;;;10.15;92.24
76378;BME280;65200;49.500;8.654;2023-01-05T03:48:24;100859.94;;;10.13;91.46
76378;BME280;65200;49.500;8.654;2023-01-05T03:50:52;100865.16;;;10.15;90.56
76378;BME280;65200;49.500;8.654;2023-01-05T03:53:18;100864.78;;;10.18;90.96
76378;BME280;65200;49.500;8.654;2023-01-05T03:55:45;100865.16;;;10.15;90.32
76378;BME280;65200;49.500;8.654;2023-01-05T03:58:11;100866.94;;;10.22;90.94
76378;BME280;65200;49.500;8.654;2023-01-05T04:00:37;100875.16;;;10.21;90.29
76378;BME280;65200;49.500;8.654;2023-01-05T04:03:04;100880.28;;;10.30;89.13
76378;BME280;65200;49.500;8.654;2023-01-05T04:05:31;100878.03;;;10.42;89.73
76378;BME280;65200;49.500;8.654;2023-01-05T04:07:58;100872.69;;;10.64;86.74
76378;BME280;65200;49.500;8.654;2023-01-05T04:10:25;100872.59;;;10.80;85.70
76378;BME280;65200;49.500;8.654;2023-01-05T04:12:51;100873.97;;;10.76;86.17
76378;BME280;65200;49.500;8.654;2023-01-05T04:15:18;100872.41;;;10.82;85.14
76378;BME280;65200;49.500;8.654;2023-01-05T04:17:44;100875.94;;;10.82;85.28
76378;BME280;65200;49.500;8.654;2023-01-05T04:20:10;100888.78;;;10.87;84.76
76378;BME280;65200;49.500;8.654;2023-01-05T04:22:38;100890.84;;;10.99;79.57
76378;BME280;65200;49.500;8.654;2023-01-05T04:25:06;100897.84;;;11.08;79.54
76378;BME280;65200;49.500;8.654;2023-01-05T04:27:32;100902.53;;;11.06;78.43
76378;BME280;65200;49.500;8.654;2023-01-05T04:29:59;100908.88;;;11.14;76.25
76378;BME280;65200;49.500;8.654;2023-01-05T04:32:25;100915.72;;;11.16;73.73
76378;BME280;65200;49.500;8.654;2023-01-05T04:34:51;100921.97;;;11.08;75.05
76378;BME280;65200;49.500;8.654;2023-01-05T04:37:18;100907.25;;;11.04;74.59
76378;BME280;65200;49.500;8.654;2023-01-05T04:39:46;100909.63;;;10.99;74.71
76378;BME280;65200;49.500;8.654;2023-01-05T04:42:12;100917.84;;;10.98;74.03
76378;BME280;65200;49.500;8.654;2023-01-05T04:44:38;100914.53;;;10.96;74.04
76378;BME280;65200;49.500;8.654;2023-01-05T04:47:05;100927.84;;;10.89;74.37
76378;BME280;65200;49.500;8.654;2023-01-05T04:49:31;100932.66;;;10.94;72.67
76378;BME280;65200;49.500;8.654;2023-01-05T04:51:58;100925.16;;;10.89;73.01
76378;BME280;65200;49.500;8.654;2023-01-05T04:54:24;100936.81;;;10.96;72.94
76378;BME280;65200;49.500;8.654;2023-01-05T04:56:52;100935.88;;;10.89;73.12
76378;BME280;65200;49.500;8.654;2023-01-05T04:59:18;100938.25;;;10.84;73.45
76378;BME280;65200;49.500;8.654;2023-01-05T05:01:45;100945.81;;;10.81;73.15
76378;BME280;65200;49.500;8.654;2023-01-05T05:04:11;100941.63;;;10.78;72.93
76378;BME280;65200;49.500;8.654;2023-01-05T05:06:37;100939.66;;;10.72;73.86
76378;BME280;65200;49.500;8.654;2023-01-05T05:09:04;100948.91;;;10.70;74.17
76378;BME280;65200;49.500;8.654;2023-01-05T05:11:30;100950.69;;;10.77;73.06
76378;BME280;65200;49.500;8.654;2023-01-05T05:13:58;100952.03;;;10.73;73.38
76378;BME280;65200;49.500;8.654;2023-01-05T05:16:25;100966.28;;;10.74;73.07
76378;BME280;65200;49.500;8.654;2023-01-05T05:18:51;100964.31;;;10.68;73.11
76378;BME280;65200;49.500;8.654;2023-01-05T05:21:17;100971.22;;;10.62;74.05
76378;BME280;65200;49.500;8.654;2023-01-05T05:23:44;100977.41;;;10.63;73.94
76378;BME280;65200;49.500;8.654;2023-01-05T05:26:10;100980.81;;;10.57;73.97
76378;BME280;65200;49.500;8.654;2023-01-05T05:28:37;100986.63;;;10.68;73.01
76378;BME280;65200;49.500;8.654;2023-01-05T05:31:04;100984.66;;;10.54;74.77
76378;BME280;65200;49.500;8.654;2023-01-05T05:33:31;100984.66;;;10.54;74.57
76378;BME280;65200;49.500;8.654;2023-01-05T05:35:57;100994.88;;;10.51;74.57
76378;BME280;65200;49.500;8.654;2023-01-05T05:38:24;100998.41;;;10.51;74.66
76378;BME280;65200;49.500;8.654;2023-01-05T05:40:50;100993.59;;;10.47;75.21
76378;BME280;65200;49.500;8.654;2023-01-05T05:43:16;100995.78;;;10.43;74.45
76378;BME280;65200;49.500;8.654;2023-01-05T05:45:43;101008.84;;;10.38;75.05
76378;BME280;65200;49.500;8.654;2023-01-05T05:48:11;101008.69;;;10.40;74.54
76378;BME280;65200;49.500;8.654;2023-01-05T05:50:37;101007.16;;;10.45;74.79
76378;BME280;65200;49.500;8.654;2023-01-05T05:53:03;101020.75;;;10.36;75.58
76378;BME280;65200;49.500;8.654;2023-01-05T05:55:30;101023.28;;;10.29;75.23
76378;BME280;65200;49.500;8.654;2023-01-05T05:57:57;101027.28;;;10.33;75.73
76378;BME280;65200;49.500;8.654;2023-01-05T06:00:23;101023.44;;;10.36;74.18
76378;BME280;65200;49.500;8.654;2023-01-05T06:02:50;101027.44;;;10.40;73.94
76378;BME280;65200;49.500;8.654;2023-01-05T06:05:18;101018.72;;;10.38;74.40
76378;BME280;65200;49.500;8.654;2023-01-05T06:07:44;101031.09;;;10.47;73.67
76378;BME280;65200;49.500;8.654;2023-01-05T06:10:11;101030.97;;;10.40;74.47
76378;BME280;65200;49.500;8.654;2023-01-05T06:12:37;101031.31;;;10.37;74.32
76378;BME280;65200;49.500;8.654;2023-01-05T06:15:05;101027.09;;;10.35;73.76
76378;BME280;65200;49.500;8.654;2023-01-05T06:17:31;101034.78;;;10.38;74.14
76378;BME280;65200;49.500;8.654;2023-01-05T06:19:58;101031.47;;;10.36;74.41
76378;BME280;65200;49.500;8.654;2023-01-05T06:22:25;101035.47;;;10.40;72.93
76378;BME280;65200;49.500;8.654;2023-01-05T06:24:52;101041.84;;;10.39;73.04
76378;BME280;65200;49.500;8.654;2023-01-05T06:27:19;101039.53;;;10.36;73.48
76378;BME280;65200;49.500;8.654;2023-01-05T06:29:45;101029.28;;;10.31;73.31
76378;BME280;65200;49.500;8.654;2023-01-05T06:32:12;101030.63;;;10.35;72.95
76378;BME280;65200;49.500;8.654;2023-01-05T06:34:38;101024.25;;;10.36;74.29
76378;BME280;65200;49.500;8.654;2023-01-05T06:37:05;101021.59;;;10.28;75.05
76378;BME280;65200;49.500;8.654;2023-01-05T06:39:32;101023.28;;;10.29;74.83
76378;BME280;65200;49.500;8.654;2023-01-05T06:41:59;101029.47;;;10.30;74.86
76378;BME280;65200;49.500;8.654;2023-01-05T06:44:25;101034.69;;;10.23;74.23
76378;BME280;65200;49.500;8.654;2023-01-05T06:46:52;101023.16;;;10.23;74.05
76378;BME280;65200;49.500;8.654;2023-01-05T06:49:18;101034.69;;;10.23;74.01
76378;BME280;65200;49.500;8.654;2023-01-05T06:51:45;101036.19;;;10.26;73.50
76378;BME280;65200;49.500;8.654;2023-01-05T06:54:11;101038.34;;;10.30;73.80
76378;BME280;65200;49.500;8.654;2023-01-05T06:56:39;101030.81;;;10.34;73.15
76378;BME280;65200;49.500;8.654;2023-01-05T06:59:05;101026.47;;;10.25;74.22
76378;BME280;65200;49.500;8.654;2023-01-05T07:01:32;101018.09;;;10.20;74.54
76378;BME280;65200;49.500;8.654;2023-01-05T07:03:58;101036.88;;;10.28;73.80
76378;BME280;65200;49.500;8.654;2023-01-05T07:06:25;101038.66;;;10.35;74.55
76378;BME280;65200;49.500;8.654;2023-01-05T07:08:51;101031.47;;;10.36;74.71
76378;BME280;65200;49.500;8.654;2023-01-05T07:11:18;101036.53;;;10.31;75.30
76378;BME280;65200;49.500;8.654;2023-01-05T07:13:47;101043.38;;;10.25;75.60
76378;BME280;65200;49.500;8.654;2023-01-05T07:16:14;101052.75;;;10.29;75.01
76378;BME280;65200;49.500;8.654;2023-01-05T07:18:41;101046.06;;;10.25;74.82
76378;BME280;65200;49.500;8.654;2023-01-05T07:21:08;101046.94;;;10.18;74.95
76378;BME280;65200;49.500;8.654;2023-01-05T07:23:34;101049.09;;;10.14;76.32
76378;BME280;65200;49.500;8.654;2023-01-05T07:26:02;101060.97;;;10.20;75.50
76378;BME280;65200;49.500;8.654;2023-01-05T07:28:29;101052.44;;;10.24;74.79
76378;BME280;65200;49.500;8.654;2023-01-05T07:30:56;101057.31;;;10.21;75.23
76378;BME280;65200;49.500;8.654;2023-01-05T07:33:23;101058.00;;;10.15;75.04
76378;BME280;65200;49.500;8.654;2023-01-05T07:35:49;101058.16;;;10.21;75.73
76378;BME280;65200;49.500;8.654;2023-01-05T07:38:16;101038.91;;;10.10;75.68
76378;BME280;65200;49.500;8.654;2023-01-05T07:40:42;101058.00;;;10.15;76.06
76378;BME280;65200;49.500;8.654;2023-01-05T07:43:09;101071.84;;;10.18;75.18
76378;BME280;65200;49.500;8.654;2023-01-05T07:45:35;101068.19;;;10.19;75.22
76378;BME280;65200;49.500;8.654;2023-01-05T07:48:03;101064.00;;;10.17;75.04
76378;BME280;65200;49.500;8.654;2023-01-05T07:50:29;101064.31;;;10.22;75.44
76378;BME280;65200;49.500;8.654;2023-01-05T07:52:57;101074.22;;;10.21;75.11
76378;BME280;65200;49.500;8.654;2023-01-05T07:55:23;101079.56;;;10.21;75.21
76378;BME280;65200;49.500;8.654;2023-01-05T07:57:50;101083.25;;;10.12;76.31
76378;BME280;65200;49.500;8.654;2023-01-05T08:00:16;101081.94;;;10.16;76.14
76378;BME280;65200;49.500;8.654;2023-01-05T08:02:43;101084.09;;;10.05;75.30
76378;BME280;65200;49.500;8.654;2023-01-05T08:05:11;101087.13;;;10.10;75.58
76378;BME280;65200;49.500;8.654;2023-01-05T08:07:38;101087.28;;;10.16;75.96
76378;BME280;65200;49.500;8.654;2023-01-05T08:10:05;101098.00;;;10.16;74.83
76378;BME280;65200;49.500;8.654;2023-01-05T08:12:50;101092.47;;;10.10;75.29
76378;BME280;65200;49.500;8.654;2023-01-05T08:15:36;101103.19;;;10.10;76.39
76378;BME280;65200;49.500;8.654;2023-01-05T08:18:03;101113.91;;;10.10;74.82
76378;BME280;65200;49.500;8.654;2023-01-05T08:20:30;101117.72;;;10.15;75.56
76378;BME280;65200;49.500;8.654;2023-01-05T08:22:57;101122.09;;;10.16;74.28
76378;BME280;65200;49.500;8.654;2023-01-05T08:25:23;101123.09;;;10.15;74.84
76378;BME280;65200;49.500;8.654;2023-01-05T08:27:49;101119.75;;;10.29;72.36
76378;BME280;65200;49.500;8.654;2023-01-05T08:30:16;101128.25;;;10.49;71.57
76378;BME280;65200;49.500;8.654;2023-01-05T08:32:42;101125.03;;;10.53;72.27
76378;BME280;65200;49.500;8.654;2023-01-05T08:35:09;101112.47;;;10.46;71.93
76378;BME280;65200;49.500;8.654;2023-01-05T08:37:37;101125.88;;;10.62;71.10
76378;BME280;65200;49.500;8.654;2023-01-05T08:40:05;101123.44;;;10.75;70.95
76378;BME280;65200;49.500;8.654;2023-01-05T08:42:32;101130.34;;;10.69;71.48
76378;BME280;65200;49.500;8.654;2023-01-05T08:44:58;101134.03;;;10.76;70.22
76378;BME280;65200;49.500;8.654;2023-01-05T08:47:25;101138.38;;;10.77;70.80
76378;BME280;65200;49.500;8.654;2023-01-05T08:49:51;101142.06;;;10.76;70.99
76378;BME280;65200;49.500;8.654;2023-01-05T08:52:18;101144.44;;;10.71;71.81
76378;BME280;65200;49.500;8.654;2023-01-05T08:54:45;101149.44;;;10.74;71.03
76378;BME280;65200;49.500;8.654;2023-01-05T08:57:12;101141.91;;;10.78;71.17
76378;BME280;65200;49.500;8.654;2023-01-05T08:59:39;101150.09;;;10.84;70.56
76378;BME280;65200;49.500;8.654;2023-01-05T09:02:07;101153.75;;;10.83;70.63
76378;BME280;65200;49.500;8.654;2023-01-05T09:04:33;101155.94;;;10.80;71.25
76378;BME280;65200;49.500;8.654;2023-01-05T09:07:00;101149.41;;;10.82;70.65
76378;BME280;65200;49.500;8.654;2023-01-05T09:09:26;101156.78;;;10.80;70.81
76378;BME280;65200;49.500;8.654;2023-01-05T09:11:54;101158.00;;;10.78;71.18
76378;BME280;65200;49.500;8.654;2023-01-05T09:14:20;101158.81;;;10.78;70.96
76378;BME280;65200;49.500;8.654;2023-01-05T09:16:46;101163.00;;;10.81;70.96
76378;BME280;65200;49.500;8.654;2023-01-05T09:19:13;101151.59;;;10.79;71.73
76378;BME280;65200;49.500;8.654;2023-01-05T09:21:39;101156.97;;;10.79;71.53
76378;BME280;65200;49.500;8.654;2023-01-05T09:24:06;101160.66;;;10.78;71.46
76378;BME280;65200;49.500;8.654;2023-01-05T09:26:36;101157.78;;;10.87;71.53
76378;BME280;65200;49.500;8.654;2023-01-05T09:29:03;101164.50;;;10.83;71.06
76378;BME280;65200;49.500;8.654;2023-01-05T09:31:30;101164.00;;;10.80;71.16
76378;BME280;65200;49.500;8.654;2023-01-05T09:33:57;101171.72;;;10.83;70.51
76378;BME280;65200;49.500;8.654;2023-01-05T09:36:24;101169.34;;;10.80;70.94
76378;BME280;65200;49.500;8.654;2023-01-05T09:38:52;101170.03;;;10.82;71.40
76378;BME280;65200;49.500;8.654;2023-01-05T09:41:21;101170.72;;;10.76;71.11
76378;BME280;65200;49.500;8.654;2023-01-05T09:43:52;101170.03;;;10.82;72.30
76378;BME280;65200;49.500;8.654;2023-01-05T09:46:24;101169.00;;;10.91;71.19
76378;BME280;65200;49.500;8.654;2023-01-05T09:48:56;101167.84;;;10.85;71.40
76378;BME280;65200;49.500;8.654;2023-01-05T09:51:24;101175.53;;;10.88;71.51
76378;BME280;65200;49.500;8.654;2023-01-05T09:53:51;101172.84;;;10.88;71.55
76378;BME280;65200;49.500;8.654;2023-01-05T09:56:26;101161.81;;;10.83;71.56
76378;BME280;65200;49.500;8.654;2023-01-05T09:58:58;101180.22;;;10.86;71.70
76378;BME280;65200;49.500;8.654;2023-01-05T10:01:30;101177.88;;;10.91;71.44
76378;BME280;65200;49.500;8.654;2023-01-05T10:04:00;101175.16;;;10.99;71.77
76378;BME280;65200;49.500;8.654;2023-01-05T10:06:31;101173.50;;;10.98;71.68
76378;BME280;65200;49.500;8.654;2023-01-05T10:09:01;101176.53;;;10.95;71.35
76378;BME280;65200;49.500;8.654;2023-01-05T10:11:34;101175.50;;;10.96;71.97
76378;BME280;65200;49.500;8.654;2023-01-05T10:14:23;101175.47;;;11.04;71.21
76378;BME280;65200;49.500;8.654;2023-01-05T10:16:55;101178.84;;;11.06;71.35
76378;BME280;65200;49.500;8.654;2023-01-05T10:19:21;101176.97;;;11.15;71.22
76378;BME280;65200;49.500;8.654;2023-01-05T10:21:57;101172.94;;;11.11;71.53
76378;BME280;65200;49.500;8.654;2023-01-05T10:24:34;101174.78;;;11.19;70.33
76378;BME280;65200;49.500;8.654;2023-01-05T10:27:06;101172.09;;;11.19;70.54
76378;BME280;65200;49.500;8.654;2023-01-05T10:29:38;101181.97;;;11.18;71.22
76378;BME280;65200;49.500;8.654;2023-01-05T10:32:16;101177.91;;;11.22;70.13
76378;BME280;65200;49.500;8.654;2023-01-05T10:34:54;101177.06;;;11.30;70.11
76378;BME280;65200;49.500;8.654;2023-01-05T10:37:34;101163.66;;;11.30;69.84
76378;BME280;65200;49.500;8.654;2023-01-05T10:40:16;101166.94;;;11.40;69.93
76378;BME280;65200;49.500;8.654;2023-01-05T10:43:09;101178.19;;;11.43;69.72
76378;BME280;65200;49.500;8.654;2023-01-05T10:45:39;101175.28;;;11.53;69.07
76378;BME280;65200;49.500;8.654;2023-01-05T10:48:12;101178.25;;;11.58;69.05
76378;BME280;65200;49.500;8.654;2023-01-05T10:50:40;101177.88;;;11.69;68.92
76378;BME280;65200;49.500;8.654;2023-01-05T10:53:10;101179.84;;;11.75;68.87
76378;BME280;65200;49.500;8.654;2023-01-05T10:55:49;101182.19;;;11.78;69.22
76378;BME280;65200;49.500;8.654;2023-01-05T10:58:22;101179.13;;;11.81;68.35
76378;BME280;65200;49.500;8.654;2023-01-05T11:00:52;101192.25;;;11.76;68.55
76378;BME280;65200;49.500;8.654;2023-01-05T11:03:26;101185.59;;;11.72;67.69
76378;BME280;65200;49.500;8.654;2023-01-05T11:05:54;101180.34;;;11.78;67.28
76378;BME280;65200;49.500;8.654;2023-01-05T11:08:21;101181.31;;;11.85;67.99
76378;BME280;65200;49.500;8.654;2023-01-05T11:10:53;101173.88;;;11.87;67.51
76378;BME280;65200;49.500;8.654;2023-01-05T11:13:27;101177.03;;;11.91;67.05
76378;BME280;65200;49.500;8.654;2023-01-05T11:15:56;101178.44;;;11.87;67.07
76378;BME280;65200;49.500;8.654;2023-01-05T11:18:34;101180.94;;;11.88;65.66
76378;BME280;65200;49.500;8.654;2023-01-05T11:21:10;101189.94;;;11.95;65.32
76378;BME280;65200;49.500;8.654;2023-01-05T11:23:39;101182.53;;;11.97;65.79
76378;BME280;65200;49.500;8.654;2023-01-05T11:26:30;101188.41;;;12.01;65.28
76378;BME280;65200;49.500;8.654;2023-01-05T11:28:59;101176.00;;;12.00;66.72
76378;BME280;65200;49.500;8.654;2023-01-05T11:31:31;101183.44;;;11.90;66.38
76378;BME280;65200;49.500;8.654;2023-01-05T11:34:06;101185.09;;;11.91;65.77
76378;BME280;65200;49.500;8.654;2023-01-05T11:36:33;101185.09;;;11.91;65.50
76378;BME280;65200;49.500;8.654;2023-01-05T11:38:59;101186.00;;;11.83;66.48
76378;BME280;65200;49.500;8.654;2023-01-05T11:41:26;101182.78;;;11.88;66.59
76378;BME280;65200;49.500;8.654;2023-01-05T11:43:53;101181.75;;;11.89;65.87
76378;BME280;65200;49.500;8.654;2023-01-05T11:46:21;101176.50;;;11.95;64.64
76378;BME280;65200;49.500;8.654;2023-01-05T11:48:51;101192.63;;;11.95;66.53
76378;BME280;65200;49.500;8.654;2023-01-05T11:51:36;101184.41;;;11.97;66.30
76378;BME280;65200;49.500;8.654;2023-01-05T11:54:04;101193.28;;;11.97;65.88
76378;BME280;65200;49.500;8.654;2023-01-05T11:56:31;101191.81;;;11.95;66.62
76378;BME280;65200;49.500;8.654;2023-01-05T11:58:58;101197.47;;;12.00;66.69
76378;BME280;65200;49.500;8.654;2023-01-05T12:01:43;101190.34;;;12.07;66.24
76378;BME280;65200;49.500;8.654;2023-01-05T12:04:40;101195.97;;;11.97;66.56
76378;BME280;65200;49.500;8.654;2023-01-05T12:07:23;101192.16;;;11.92;67.42
76378;BME280;65200;49.500;8.654;2023-01-05T12:09:57;101198.22;;;11.86;68.34
76378;BME280;65200;49.500;8.654;2023-01-05T12:12:41;101199.94;;;11.87;67.90
76378;BME280;65200;49.500;8.654;2023-01-05T12:15:42;101203.59;;;11.86;67.43
76378;BME280;65200;49.500;8.654;2023-01-05T12:18:16;101195.50;;;11.94;68.05
76378;BME280;65200;49.500;8.654;2023-01-05T12:20:56;101196.63;;;11.99;66.94
76378;BME280;65200;49.500;8.654;2023-01-05T12:23:38;101198.06;;;12.10;67.05
76378;BME280;65200;49.500;8.654;2023-01-05T12:26:17;101192.97;;;12.15;66.88
76378;BME280;65200;49.500;8.654;2023-01-05T12:29:01;101200.28;;;12.06;67.58
76378;BME280;65200;49.500;8.654;2023-01-05T12:31:41;101193.94;;;11.99;67.15
76378;BME280;65200;49.500;8.654;2023-01-05T12:37:16;101198.72;;;12.12;66.96
76378;BME280;65200;49.500;8.654;2023-01-05T12:40:11;101196.50;;;12.15;65.56
76378;BME280;65200;49.500;8.654;2023-01-05T12:42:56;101192.84;;;12.08;65.76
76378;BME280;65200;49.500;8.654;2023-01-05T12:45:35;101200.97;;;12.00;65.50
76378;BME280;65200;49.500;8.654;2023-01-05T12:48:07;101196.09;;;12.04;66.53
76378;BME280;65200;49.500;8.654;2023-01-05T12:50:39;101185.16;;;12.05;65.27
76378;BME280;65200;49.500;8.654;2023-01-05T12:53:14;101196.41;;;12.09;65.86
76378;BME280;65200;49.500;8.654;2023-01-05T12:55:47;101198.78;;;12.04;65.46
76378;BME280;65200;49.500;8.654;2023-01-05T12:58:17;101201.16;;;11.99;65.84
76378;BME280;65200;49.500;8.654;2023-01-05T13:00:47;101201.22;;;11.91;67.06
76378;BME280;65200;49.500;8.654;2023-01-05T13:03:19;101202.91;;;11.92;67.17
76378;BME280;65200;49.500;8.654;2023-01-05T13:05:52;101199.19;;;11.93;66.43
76378;BME280;65200;49.500;8.654;2023-01-05T13:08:24;101209.94;;;11.93;65.44
76378;BME280;65200;49.500;8.654;2023-01-05T13:10:56;101205.94;;;11.89;65.23